Latest Weather Observations for Cerberus

IDV60901

Issued at 9:11 am EDT Thursday 8 December 2016 (issued every 10 minutes, with the page automatically refreshed every 10 minutes)

About weather observations | Map of Melbourne area stations | Latest observations for Melbourne area | Other Formats
Station Details ID: 086361 Name: CERBERUS Lat: -38.36 Lon: 145.18 Height: 12.69 m
Data from the previous 72 hours. | See also: Recent months at Cerberus
Date/Time
EDT
Temp
°C
App
Temp
°C
Dew
Point
°C
Rel
Hum
%
Delta-T
°C
Wind Press
QNH
hPa
Press
MSL
hPa
Rain since
9am
mm
Dir  Spd
km/h
Gust
km/h
Spd
kts
Gust
kts
08/09:00am 16.6 14.7 14.2 86 1.4 N 17 32 9 17 996.5 996.5 10.8
08/08:30am 16.4 14.9 14.1 86 1.3 N 15 28 8 15 996.5 996.5 8.6
08/08:00am 16.4 14.7 13.5 83 1.6 N 15 28 8 15 997.3 997.3 7.2
08/07:30am 16.9 15.1 13.2 79 2.1 N 15 28 8 15 997.5 997.5 4.6
08/07:00am 17.3 15.3 12.8 75 2.5 N 15 32 8 17 998.3 998.3 3.2
08/06:30am 18.0 15.6 12.7 71 3.0 NNW 17 39 9 21 999.2 999.2 1.8
08/06:00am 15.3 14.6 12.1 81 1.8 NNW 7 11 4 6 998.4 998.4 0.8
08/05:30am 14.5 13.6 10.7 78 2.0 N 6 9 3 5 998.2 998.2 0.4
08/05:00am 15.4 14.5 10.6 73 2.6 NNE 6 7 3 4 997.6 997.6 0.0
08/04:30am 15.8 14.7 10.8 72 2.7 NNE 7 13 4 7 997.6 997.6 0.0
08/04:00am 16.1 14.7 10.8 71 2.8 NNE 9 17 5 9 998.0 998.0 0.0
08/03:30am 16.2 14.6 11.4 73 2.6 NE 11 20 6 11 998.5 998.5 0.0
08/03:00am 16.0 14.2 10.7 71 2.8 NNE 11 19 6 10 999.5 999.5 0.0
08/02:30am 15.8 13.2 10.6 71 2.8 NE 15 24 8 13 999.9 999.9 0.0
08/02:00am 15.6 12.9 10.4 71 2.8 NNE 15 28 8 15 1001.3 1001.3 0.0
08/01:30am 15.8 13.5 10.6 71 2.8 NE 13 26 7 14 1002.1 1002.1 0.0
08/01:00am 15.8 13.5 10.6 71 2.8 NE 13 22 7 12 1002.9 1002.9 0.0
08/12:30am 16.1 13.8 10.4 69 3.0 NE 13 24 7 13 1003.8 1003.8 0.0
08/12:00am 16.6 13.9 10.5 67 3.3 NE 15 30 8 16 1004.7 1004.7 0.0
 
Date/Time
EDT
Temp
°C
App
Temp
°C
Dew
Point
°C
Rel
Hum
%
Delta-T
°C
Wind Press
QNH
hPa
Press
MSL
hPa
Rain since
9am
mm
Dir  Spd
km/h
Gust
km/h
Spd
kts
Gust
kts
07/11:30pm 17.0 14.4 10.6 66 3.4 NE 15 26 8 14 1005.2 1005.2 0.0
07/11:00pm 17.5 14.7 10.1 62 3.9 NE 15 26 8 14 1005.4 1005.4 0.0
07/10:30pm 17.4 16.3 10.5 64 3.7 NE 7 17 4 9 1006.0 1006.0 0.0
07/10:00pm 16.0 15.4 11.6 75 2.4 E 6 9 3 5 1006.8 1006.8 0.0
07/09:30pm 14.9 14.9 11.1 78 2.0 SE 2 6 1 3 1007.1 1007.1 0.0
07/09:00pm 16.8 17.3 11.5 71 2.9 CALM 0 2 0 1 1007.6 1007.6 0.0
07/08:30pm 18.2 17.9 11.5 65 3.7 SE 4 7 2 4 1007.8 1007.8 0.0
07/08:00pm 19.0 17.7 11.3 61 4.2 ESE 9 17 5 9 1008.1 1008.1 0.0
07/07:30pm 19.3 17.0 10.6 57 4.7 ESE 13 20 7 11 1008.3 1008.3 0.0
07/07:00pm 19.8 17.7 11.0 57 4.8 SE 13 20 7 11 1008.7 1008.7 0.0
07/06:30pm 20.1 17.4 9.1 49 5.8 SSE 13 19 7 10 1009.0 1009.0 0.0
07/06:00pm 21.0 18.3 7.3 41 7.0 SE 11 17 6 9 1009.4 1009.4 0.0
07/05:30pm 21.6 19.3 7.4 40 7.3 SE 9 17 5 9 1009.7 1009.7 0.0
07/05:00pm 21.4 18.5 8.0 42 7.0 ESE 13 19 7 10 1010.4 1010.4 0.0
07/04:30pm 21.3 18.4 8.2 43 6.9 ESE 13 20 7 11 1010.9 1010.9 0.0
07/04:00pm 20.5 17.8 10.3 52 5.5 SW 15 22 8 12 1011.5 1011.5 0.0
07/03:30pm 20.6 17.7 9.5 49 5.9 SSW 15 22 8 12 1012.0 1012.0 0.0
07/03:00pm 20.4 17.5 8.1 45 6.4 SSW 13 19 7 10 1012.6 1012.6 0.0
07/02:30pm 20.2 16.8 9.2 49 5.8 SW 17 24 9 13 1012.8 1012.8 0.0
07/02:00pm 22.0 18.3 4.6 32 8.5 NE 13 22 7 12 1012.9 1012.9 0.0
07/01:30pm 21.0 17.1 3.2 31 8.4 NNE 13 20 7 11 1013.3 1013.3 0.0
07/01:00pm 20.9 17.5 4.0 33 8.1 E 11 19 6 10 1014.0 1013.9 0.0
07/12:30pm 20.5 17.9 4.1 34 7.9 NE 7 19 4 10 1014.4 1014.3 0.0
07/12:00pm 20.0 17.5 3.7 34 7.7 ESE 6 13 3 7 1014.7 1014.6 0.0
07/11:30am 19.1 16.3 2.9 34 7.5 ESE 7 13 4 7 1014.9 1014.8 0.0
07/11:00am 18.6 15.7 2.4 34 7.4 NNE 7 11 4 6 1015.3 1015.2 0.0
07/10:30am 17.8 14.6 2.9 37 6.9 ENE 9 17 5 9 1015.4 1015.3 0.0
07/10:00am 16.8 14.5 7.4 54 4.7 NNE 9 15 5 8 1015.4 1015.3 0.0
07/09:30am 15.8 13.6 9.2 65 3.4 ENE 11 17 6 9 1015.5 1015.4 0.0
07/09:00am 16.2 14.9 10.1 67 3.2 NNE 7 13 4 7 1015.5 1015.4 0.0
07/08:30am 15.1 13.7 9.5 69 2.9 NNE 7 13 4 7 1015.6 1015.5 0.0
07/08:00am 14.0 12.9 10.0 77 2.1 NNE 6 9 3 5 1015.8 1015.7 0.0
07/07:30am 12.1 11.4 10.0 87 1.1 ENE 4 7 2 4 1015.5 1015.4 0.0
07/07:00am 10.3 10.1 9.1 92 0.6 CALM 0 0 0 0 1015.7 1015.6 0.0
07/06:30am 7.0 5.3 5.8 92 0.5 N 4 6 2 3 1015.5 1015.4 0.0
07/06:00am 6.6 4.8 5.4 92 0.5 N 4 6 2 3 1015.3 1015.2 0.0
07/05:30am 6.4 5.3 5.0 91 0.6 CALM 0 0 0 0 1015.0 1014.9 0.0
07/05:00am 6.8 5.8 5.4 91 0.6 CALM 0 0 0 0 1014.7 1014.6 0.0
07/04:30am 6.7 5.6 5.3 91 0.6 CALM 0 2 0 1 1014.4 1014.3 0.0
07/04:00am 6.5 5.0 5.1 91 0.6 N 2 2 1 1 1014.3 1014.2 0.0
07/03:30am 7.0 6.0 5.5 90 0.7 CALM 0 0 0 0 1014.4 1014.3 0.0
07/03:00am 7.1 6.1 5.6 90 0.7 CALM 0 0 0 0 1014.7 1014.6 0.0
07/02:30am 7.2 6.2 5.5 89 0.8 CALM 0 0 0 0 1015.0 1014.9 0.0
07/02:00am 7.0 5.9 5.2 88 0.8 CALM 0 0 0 0 1015.3 1015.2 0.0
07/01:30am 7.8 6.9 5.9 88 0.9 CALM 0 0 0 0 1015.5 1015.4 0.0
07/01:00am 7.7 6.0 5.7 87 0.9 N 4 6 2 3 1015.5 1015.4 0.0
07/12:30am 8.7 7.5 6.5 86 1.0 N 2 2 1 1 1015.8 1015.7 0.0
07/12:00am 8.9 7.7 6.5 85 1.1 N 2 4 1 2 1015.9 1015.8 0.0
 
Date/Time
EDT
Temp
°C
App
Temp
°C
Dew
Point
°C
Rel
Hum
%
Delta-T
°C
Wind Press
QNH
hPa
Press
MSL
hPa
Rain since
9am
mm
Dir  Spd
km/h
Gust
km/h
Spd
kts
Gust
kts
06/11:30pm 9.6 7.7 6.9 83 1.3 SSW 6 7 3 4 1015.9 1015.8 0.0
06/11:00pm 9.3 7.6 6.0 80 1.5 SSW 4 6 2 3 1015.9 1015.8 0.0
06/10:30pm 11.7 10.0 7.4 75 2.1 SSW 6 7 3 4 1016.0 1015.9 0.0
06/10:00pm 12.6 10.7 7.5 71 2.5 SSW 7 11 4 6 1015.9 1015.8 0.0
06/09:30pm 12.9 11.0 7.4 69 2.7 SSW 7 11 4 6 1015.5 1015.4 0.0
06/09:00pm 13.2 11.4 7.2 67 2.9 SSW 6 9 3 5 1015.3 1015.2 0.0
06/08:30pm 13.8 11.5 7.6 66 3.0 SSW 9 15 5 8 1015.3 1015.2 0.0
06/08:00pm 14.8 11.8 7.8 63 3.5 SSW 13 20 7 11 1014.9 1014.8 0.0
06/07:30pm 15.5 12.6 8.0 61 3.8 SSW 13 19 7 10 1015.1 1015.0 0.0
06/07:00pm 15.8 12.4 7.8 59 4.0 SSW 15 22 8 12 1015.0 1014.9 0.0
06/06:30pm 16.5 13.0 8.7 60 4.0 SSW 17 24 9 13 1014.6 1014.5 0.0
06/06:00pm 16.7 12.7 8.4 58 4.2 SSW 19 30 10 16 1014.3 1014.2 0.0
06/05:30pm 16.7 12.3 7.4 54 4.6 SSW 20 33 11 18 1013.9 1013.8 0.0
06/05:00pm 17.4 13.3 7.7 53 4.9 SSW 19 28 10 15 1013.9 1013.8 0.0
06/04:30pm 17.1 12.8 6.9 51 5.1 SSW 19 28 10 15 1013.9 1013.8 0.0
06/04:00pm 18.1 14.8 8.1 52 5.1 SSW 15 24 8 13 1013.8 1013.7 0.0
06/03:30pm 17.1 12.2 6.9 51 5.1 SSW 22 35 12 19 1014.0 1013.9 0.0
06/03:00pm 17.6 12.9 6.2 47 5.6 SSW 20 30 11 16 1014.0 1013.9 0.0
06/02:30pm 18.2 13.1 5.8 44 6.1 SSW 22 30 12 16 1013.9 1013.8 0.0
06/02:00pm 18.1 13.6 6.3 46 5.8 SSW 19 30 10 16 1013.9 1013.8 0.0
06/01:30pm 17.8 14.0 7.5 51 5.2 SSW 17 26 9 14 1014.0 1013.9 0.0
06/01:00pm 16.8 12.9 6.9 52 4.9 SSW 17 24 9 13 1014.1 1014.0 0.0
06/12:30pm 17.0 13.7 7.9 55 4.6 SSW 15 22 8 12 1014.5 1014.4 0.0
06/12:00pm 16.4 13.2 8.4 59 4.1 SSW 15 22 8 12 1014.3 1014.2 0.0
06/11:30am 17.0 14.9 9.9 63 3.7 SSW 11 19 6 10 1014.0 1013.9 0.0
06/11:00am 15.7 14.1 8.7 63 3.6 S 7 11 4 6 1013.9 1013.8 0.0
06/10:30am 15.4 13.9 8.4 63 3.5 S 6 13 3 7 1013.9 1013.8 0.0
06/10:00am 15.1 13.7 9.5 69 2.9 SSW 7 15 4 8 1014.5 1014.4 0.0
06/09:30am 15.0 14.5 10.8 76 2.2 SW 4 9 2 5 1014.8 1014.7 0.0
06/09:00am 13.8 13.6 10.4 80 1.8 SW 2 4 1 2 1014.3 1014.2 0.0
06/08:30am 13.8 12.8 10.2 79 1.9 SSW 6 7 3 4 1014.0 1013.9 0.0
06/08:00am 13.8 13.2 10.4 80 1.8 SSE 4 7 2 4 1014.2 1014.1 0.0
06/07:30am 13.7 13.2 10.7 82 1.6 SE 4 6 2 3 1013.7 1013.6 0.0
06/07:00am 13.4 12.4 10.4 82 1.6 SW 6 9 3 5 1013.6 1013.5 0.0
06/06:30am 13.4 12.4 10.4 82 1.6 W 6 6 3 3 1013.4 1013.4 0.0
06/06:00am 13.5 13.6 10.3 81 1.7 CALM 0 0 0 0 1012.9 1012.9 0.0
06/05:30am 13.4 13.1 10.0 80 1.8 N 2 6 1 3 1012.6 1012.6 0.0
06/05:00am 13.4 13.4 9.8 79 1.8 CALM 0 0 0 0 1012.1 1012.1 0.0
06/04:30am 13.4 13.0 9.8 79 1.8 SE 2 4 1 2 1011.6 1011.6 0.0
06/04:00am 13.6 12.8 9.6 77 2.0 SE 4 4 2 2 1011.5 1011.5 0.0
06/03:30am 13.5 12.3 9.7 78 1.9 SE 6 7 3 4 1011.2 1011.2 0.0
06/03:00am 13.4 12.6 9.6 78 1.9 SSE 4 9 2 5 1011.9 1011.9 0.0
06/02:30am 13.4 12.7 10.0 80 1.8 SE 4 6 2 3 1012.5 1012.5 0.0
06/02:00am 13.4 12.4 10.2 81 1.7 SE 6 7 3 4 1012.7 1012.7 0.0
06/01:30am 12.2 11.9 8.7 79 1.7 CALM 0 4 0 2 1012.8 1012.8 0.0
06/01:00am 12.2 11.1 8.3 77 1.9 SSW 4 6 2 3 1013.1 1013.1 0.0
06/12:30am 12.5 11.3 8.2 75 2.1 SSW 4 6 2 3 1013.3 1013.3 0.0
06/12:00am 12.8 11.6 7.9 72 2.4 SW 4 6 2 3 1013.6 1013.5 0.0
 
Date/Time
EDT
Temp
°C
App
Temp
°C
Dew
Point
°C
Rel
Hum
%
Delta-T
°C
Wind Press
QNH
hPa
Press
MSL
hPa
Rain since
9am
mm
Dir  Spd
km/h
Gust
km/h
Spd
kts
Gust
kts
05/11:30pm 13.3 11.7 8.0 70 2.6 SSW 6 7 3 4 1014.6 1014.5 0.0
05/11:00pm 13.6 11.4 7.8 68 2.9 S 9 13 5 7 1014.2 1014.1 0.0
05/10:30pm 14.1 11.5 7.6 65 3.2 SSW 11 17 6 9 1014.8 1014.7 0.0
05/10:00pm 14.2 12.5 8.2 67 3.0 SSW 7 11 4 6 1015.4 1015.3 0.0
05/09:30pm 14.2 12.2 8.8 70 2.7 S 9 20 5 11 1014.7 1014.6 0.0
05/09:00pm 14.2 11.7 8.4 68 2.9 SSW 11 17 6 9 1014.7 1014.6 0.0
05/08:30pm 14.4 12.0 8.6 68 2.9 S 11 19 6 10 1013.8 1013.7 0.0
05/08:00pm 14.4 12.1 9.0 70 2.7 SSW 11 19 6 10 1013.9 1013.8 0.0
05/07:30pm 14.8 12.0 8.7 67 3.1 SSW 13 19 7 10 1014.0 1013.9 0.0
05/07:00pm 15.0 12.2 10.0 72 2.6 SSW 15 22 8 12 1013.7 1013.6 0.0
05/06:30pm 15.5 12.5 10.7 73 2.5 SSW 17 26 9 14 1013.2 1013.2 0.0
05/06:00pm 15.8 13.0 11.2 74 2.5 SSW 17 26 9 14 1013.0 1013.0 0.0
05/05:30pm 16.5 13.7 11.2 71 2.9 SSW 17 30 9 16 1012.5 1012.5 0.0
05/05:00pm 16.4 13.3 11.6 73 2.6 SSW 19 30 10 16 1013.1 1013.1 0.0
05/04:30pm 17.3 14.4 12.2 72 2.8 S 19 28 10 15 1012.9 1012.9 0.0
05/04:00pm 17.6 14.6 10.7 64 3.7 SSW 17 26 9 14 1013.0 1013.0 0.0
05/03:30pm 18.4 15.5 9.7 57 4.6 SSW 15 22 8 12 1012.2 1012.2 0.0
05/03:00pm 17.5 13.7 9.2 58 4.3 SSW 19 30 10 16 1012.0 1012.0 0.0
05/02:30pm 19.0 15.0 10.6 58 4.5 SW 22 35 12 19 1012.3 1012.3 0.0
05/02:00pm 18.1 12.8 10.0 59 4.3 SSW 28 37 15 20 1012.3 1012.3 0.0
05/01:30pm 18.6 13.7 8.6 52 5.2 SSW 24 33 13 18 1012.2 1012.2 0.0
05/01:00pm 18.0 13.3 9.1 56 4.6 SSW 24 35 13 19 1012.1 1012.1 0.0
05/12:30pm 18.2 13.0 8.7 54 4.9 SSW 26 35 14 19 1012.1 1012.1 0.0
05/12:00pm 17.8 13.1 9.4 58 4.4 SW 24 37 13 20 1012.3 1012.3 0.0
05/11:30am 16.7 12.0 9.4 62 3.8 SSW 24 33 13 18 1012.3 1012.3 0.0
05/11:00am 17.4 14.7 10.5 64 3.7 SW 15 28 8 15 1012.3 1012.3 0.0
05/10:30am 16.9 14.0 9.6 62 3.8 WSW 15 20 8 11 1012.0 1012.0 0.0
05/10:00am 16.3 12.4 9.3 63 3.6 SW 20 30 11 16 1011.8 1011.8 0.0
05/09:30am 16.5 14.1 9.9 65 3.5 SW 13 22 7 12 1011.7 1011.7 0.0

Latest Capital City Observations: Canberra | Sydney | Melbourne | Brisbane | Adelaide | Perth | Hobart | Darwin

Other Formats:

Comma delimited format used in spreadsheet applications
http://www.bom.gov.au/fwo/IDV60901/IDV60901.94898.axf

JavaScript Object Notation format (JSON) in row-major order
http://www.bom.gov.au/fwo/IDV60901/IDV60901.94898.json